Details From LEPP - Pamplona
To LEVT - Vitoria
Flight Number -
Tags generated
Created
Modified
Stats Distance 48 nm / 89 km
Max Altitude 4,800 ft / 1,463 m
Waypoints 3
Social Downloads 1
Likes 0
Share VATSIM

Download

Looking for another format? Having issues loading an existing format? Contact us
Advertisement - Login to hide

Notes

Basic altitude profile: - Ascent Rate: 2500ft/min - Ascent Speed: 250kts - Cruise Altitude: 35000ft - Cruise Speed: 420kts - Descent Rate: 1500ft/min - Descent Speed: 250kts Options: - Use NATs: yes - Use PACOTS: yes - Use low airways: yes - Use high airways: yes

Route

LEPP MALOB LEVT

ID Type Via Altitude Latitude Longitude Leg Dist Tot Dist Heading (true) Name
O LEPP APT - 0 ft / 0 m 42.77083˚ -1.64688˚ - 0 nm - Pamplona
MALOB FIX - 4,800 ft / 1,463 m 42.84494˚ -1.93867˚ 13 nm 13 nm 289° / 289° -
O LEVT APT - 0 ft / 0 m 42.88285˚ -2.72446˚ 34 nm 48 nm 274° / 273° Vitoria

Altitude Profile

Advertisement - Login to hide

LEPP

Details ICAO LEPP (PNA)
Name Pamplona
Region Spain
Timezone Europe/Madrid (UTC+1.0)
Stats Elevation 1,503 ft / 458 m (AMSL)
Location 42.770831° -1.646876°
Runways 2
Magnetic Variation 0.226° W

METAR

LEPP 171600Z 31006KT 9999 SCT020 SCT032 07/03 Q1031

Decode

TAF

TAF LEPP 171400Z 1715/1815 32005KT 9999 BKN035 TX09/1814Z TN02/1808Z PROB30 TEMPO 1715/1717 RA PROB40 TEMPO 1721/1806 BKN010

Decode

Departure Runways

ID Width Length Bearing (true) Bearing (mag) Surface Threshold Offset Overrun Length
15 148 ft / 45 m 7,192 ft / 2,192 m 151.64° 151.87° Asphalt 0 ft / 0 m 0 ft / 0 m
16 148 ft / 45 m 7,245 ft / 2,208 m 151.86° 152.09° Asphalt 0 ft / 0 m 0 ft / 0 m
33 148 ft / 45 m 7,192 ft / 2,192 m 331.65° 331.88° Asphalt 984 ft / 300 m 656 ft / 200 m
34 148 ft / 45 m 7,245 ft / 2,208 m 331.86° 332.09° Asphalt 984 ft / 300 m 0 ft / 0 m

LEVT

Details ICAO LEVT (VIT)
Name Vitoria
Region Spain
Timezone Europe/Madrid (UTC+1.0)
Stats Elevation 1,682 ft / 513 m (AMSL)
Location 42.882847° -2.724460°
Runways 1
Magnetic Variation 0.547° W

METAR

LEVT 171600Z 33007KT 9999 -RA BKN019 BKN030 06/03 Q1032

Decode

TAF

TAF TAF LEVT 171100Z 1712/1812 31008KT 9999 SCT020 BKN040 TX08/1714Z TNM01/1806Z PROB30 TEMPO 1712/1718 RA

Decode

Destination Runways

ID Width Length Bearing (true) Bearing (mag) Surface Threshold Offset Overrun Length
04 148 ft / 45 m 11,481 ft / 3,500 m 35.83° 36.38° Asphalt 0 ft / 0 m 164 ft / 50 m
22 148 ft / 45 m 11,481 ft / 3,500 m 215.85° 216.40° Asphalt 0 ft / 0 m 164 ft / 50 m

Approach Navaids

Runway Type Ident Frequency Range Bearing (true) Bearing (mag) Slope Elevation
04 Localiser VTO 108.90 MHz 18 nm / 33 km 35.85° 36.40° - 1,682 ft / 513 m (AMSL)
04 Glidescope VTO 108.90 MHz 10 nm / 19 km 35.84° 36.39° 3.00° 1,682 ft / 513 m (AMSL)
04 DME VTO 108.90 MHz 18 nm / 33 km - - - 1,681 ft / 512 m (AMSL)

Popular Alternatives